FusionCharts will load here!
TimeCapacitySMPSum
Friday 00:00   1.36 4.793 6.152
Friday 00:30   1.12 4.793 5.910
Friday 01:00   0.91 4.666 5.579
Friday 01:30   0.79 4.691 5.483
Friday 02:00   0.70 4.268 4.971
Friday 02:30   0.64 4.268 4.907
Friday 03:00   0.57 4.268 4.834
Friday 03:30   0.53 4.268 4.800
Friday 04:00   0.52 4.268 4.790
Friday 04:30   0.51 4.268 4.776
Friday 05:00   0.50 4.310 4.808
Friday 05:30   0.54 4.362 4.905
Friday 06:00   0.63 4.827 5.460
Friday 06:30   0.89 10.824 11.712
Friday 07:00   1.25 10.734 11.988
Friday 07:30   1.83 11.150 12.980
Friday 08:00   2.20 10.741 12.937
Friday 08:30   2.37 8.570 10.939
Friday 09:00   2.45 5.046 7.501
Friday 09:30   2.63 5.012 7.642
Friday 10:00   2.67 5.000 7.675
Friday 10:30   2.67 4.922 7.593
Friday 11:00   2.68 4.700 7.385
Friday 11:30   2.69 4.562 7.256
Friday 12:00   2.69 4.361 7.047
Friday 12:30   2.71 4.286 6.997
Friday 13:00   2.68 4.286 6.970
Friday 13:30   2.56 4.198 6.758
Friday 14:00   2.50 4.243 6.744
Friday 14:30   2.52 4.243 6.765
Friday 15:00   2.52 4.185 6.705
Friday 15:30   2.55 4.126 6.675
Friday 16:00   2.57 4.396 6.970
Friday 16:30   2.72 6.135 8.852
Friday 17:00   3.10 10.795 13.896
Friday 17:30   3.42 7.217 10.637
Friday 18:00   3.44 5.149 8.587
Friday 18:30   3.30 4.932 8.233
Friday 19:00   3.16 5.433 8.589
Friday 19:30   3.15 5.083 8.235
Friday 20:00   2.99 4.827 7.813
Friday 20:30   2.78 4.827 7.611
Friday 21:00   2.64 4.827 7.465
Friday 21:30   2.40 4.800 7.201
Friday 22:00   2.17 4.741 6.907
Friday 22:30   1.95 4.763 6.708
Friday 23:00   1.83 5.321 7.149
Friday 23:30   1.75 6.737 8.489
Saturday 00:00   1.46 5.156 6.616
Saturday 00:30   1.21 5.053 6.260
Saturday 01:00   0.99 4.894 5.883
Saturday 01:30   0.84 5.012 5.856
Saturday 02:00   0.73 4.764 5.495
Saturday 02:30   0.64 4.470 5.109
Saturday 03:00   0.54 4.185 4.724
Saturday 03:30   0.48 3.803 4.279
Saturday 04:00   0.44 3.803 4.247
Saturday 04:30   0.41 3.803 4.213
Saturday 05:00   0.37 3.803 4.175
Saturday 05:30   0.38 3.803 4.180
Saturday 06:00   0.39 4.306 4.699
Saturday 06:30   0.49 4.862 5.352
Saturday 07:00   0.61 4.580 5.189
Saturday 07:30   0.80 4.931 5.733
Saturday 08:00   0.93 4.979 5.911
Saturday 08:30   1.14 5.131 6.269
Saturday 09:00   1.42 5.246 6.664
Saturday 09:30   1.72 6.655 8.375
Saturday 10:00   1.89 6.251 8.140
Saturday 10:30   2.02 6.278 8.296
Saturday 11:00   2.08 6.350 8.431
Saturday 11:30   2.14 6.342 8.479
Saturday 12:00   2.16 6.122 8.281
Saturday 12:30   2.21 6.122 8.327
Saturday 13:00   2.19 6.182 8.370
Saturday 13:30   2.10 5.973 8.074
Saturday 14:00   2.02 5.833 7.851
Saturday 14:30   1.98 5.725 7.706
Saturday 15:00   1.96 6.019 7.979
Saturday 15:30   1.98 6.136 8.113
Saturday 16:00   2.05 6.247 8.298
Saturday 16:30   2.30 7.246 9.547
Saturday 17:00   2.79 9.070 11.859
Saturday 17:30   3.14 7.501 10.645
Saturday 18:00   3.20 7.121 10.325
Saturday 18:30   3.07 6.749 9.822
Saturday 19:00   2.89 6.600 9.489
Saturday 19:30   2.73 6.332 9.061
Saturday 20:00   2.54 6.404 8.945
Saturday 20:30   2.33 6.122 8.450
Saturday 21:00   2.16 6.205 8.365
Saturday 21:30   1.99 6.155 8.146
Saturday 22:00   1.84 6.035 7.879
Saturday 22:30   1.66 6.259 7.919
Saturday 23:00   1.58 6.213 7.789
Saturday 23:30   1.52 6.232 7.755
Sunday 00:00   1.27 6.256 7.524
Sunday 00:30   1.09 6.287 7.377
Sunday 01:00   0.90 4.433 5.337
Sunday 01:30   0.77 4.388 5.157
Sunday 02:00   0.66 4.585 5.250
Sunday 02:30   0.57 4.206 4.781
Sunday 03:00   0.47 4.206 4.675
Sunday 03:30   0.41 4.206 4.619
Sunday 04:00   0.38 4.206 4.584
Sunday 04:30   0.33 4.206 4.537
Sunday 05:00   0.29 4.206 4.497
Sunday 05:30   0.27 4.178 4.446
Sunday 06:00   0.27 5.000 5.268
Sunday 06:30   0.31 5.000 5.307
Sunday 07:00   0.35 5.000 5.352
Sunday 07:30   0.43 5.000 5.426
Sunday 08:00   0.45 5.000 5.450
Sunday 08:30   0.55 5.000 5.552
Sunday 09:00   0.78 5.000 5.784
Sunday 09:30   1.07 5.000 6.075
Sunday 10:00   1.31 5.000 6.311
Sunday 10:30   1.53 5.000 6.527
Sunday 11:00   1.67 5.000 6.674
Sunday 11:30   1.79 5.000 6.794
Sunday 12:00   1.92 5.000 6.917
Sunday 12:30   2.07 5.000 7.069
Sunday 13:00   2.13 5.000 7.134
Sunday 13:30   2.09 5.000 7.094
Sunday 14:00   1.98 5.000 6.978
Sunday 14:30   1.90 5.000 6.903
Sunday 15:00   1.86 5.000 6.858
Sunday 15:30   1.85 5.000 6.853
Sunday 16:00   1.91 5.000 6.914
Sunday 16:30   2.15 5.000 7.153
Sunday 17:00   2.59 5.000 7.588
Sunday 17:30   2.86 5.000 7.864
Sunday 18:00   2.93 5.000 7.926
Sunday 18:30   2.84 5.000 7.842
Sunday 19:00   2.74 5.000 7.736
Sunday 19:30   2.61 5.000 7.608
Sunday 20:00   2.49 5.000 7.494
Sunday 20:30   2.30 5.000 7.295
Sunday 21:00   2.17 5.000 7.171
Sunday 21:30   2.06 5.000 7.058
Sunday 22:00   1.86 5.000 6.857
Sunday 22:30   1.65 5.000 6.646
Sunday 23:00   1.50 5.000 6.504
Sunday 23:30   1.37 5.000 6.369

Get the Power Market Experts on your side.

  • Review current contracts to make sure your business is tied into the lowest cost connection level agreement.
  • Provide your facilities team with access to live power readings so that load can be better managed.
  • Make comparisons between tracker and fixed electricity tariffs more transparent, so better procurement decisions are made.
  • Provide daily/hour gas price updates on the forward markets, so that gas & electricity prices can be hedged forward at competitive rates.
  • Schedule load to use lowest priced times and switch off non-critical load during high cost periods.
  • Allow a (non-critical) portion of the electricity profile to be switched off or an on-site generator started remotely by the National Grid (via an aggegrator known as a Demand Side Unit) and receive capacity payments in compensation. This is also applicable to sites with a Diesel Generator.
  • Provide an independent review and paybacks of energy saving capital projects, including wind turbines, led lighting retrofits and solar photovoltaic panels.
  • For CHP (Combined Heat & Power) owners, access market information to optimise run hours so that power is imported (purchased) when the import cost is lower than the running costs of the generator, and if there is an export potential, then better returns can be invariably be obtained using a time of day tariff model.